• Join FlightAware (Why Join?)
  • Login
  • US Flag 
07:25AM EST


 

Airport Tracker/Info


-or-


 

Live Flight TrackerFlight Track Log ✈ N210PM ✈ 14-Jun-2013 ✈ KLNK - KDSM

Flight Track Log - Related Links

Times and Time Zones

All times are in EDT time to prevent confusion due to time zone crossing. See the N210PM flight status page for this flight to view local times or setup timezone preferences in your user account.

Time Position Orientation Groundspeed Altitude Reporting Facility
EDT Latitude Longitude Course Direction KTS MPH feet Rate Location/Type
07:45PM 40.8256 -96.7444 152° Southeast 145 167 1,800  Level Minneapolis Center
07:46PM 40.8014 -96.7278 152° Southeast 160 184 3,100 1,680 Climbing Minneapolis Center
07:47PM 40.8181 -96.6864 62° Northeast 190 219 4,400 1,680 Climbing Minneapolis Center
07:48PM 40.8356 -96.6136 72° East 206 237 6,200 1,740 Climbing Minneapolis Center
07:49PM 40.8547 -96.5344 72° East 220 253 8,000 1,920 Climbing Minneapolis Center
07:49PM 40.8581 -96.4850 85° East 234 269 9,000 1,800 Climbing Minneapolis Center
07:50PM 40.8750 -96.4531 55° Northeast 229 264 9,900 1,980 Climbing Minneapolis Center
07:50PM 40.8803 -96.4056 82° East 232 267 11,000 2,100 Climbing Minneapolis Center
07:51PM 40.9000 -96.3567 62° Northeast 231 266 12,100 1,560 Climbing Minneapolis Center
07:51PM 40.9039 -96.3175 83° East 231 266 12,800 1,500 Climbing Minneapolis Center
07:52PM 40.9194 -96.2756 64° Northeast 232 267 13,700 1,560 Climbing Minneapolis Center
07:52PM 40.9258 -96.2325 79° East 236 272 14,400 1,200 Climbing Minneapolis Center
07:53PM 40.9403 -96.1928 64° Northeast 236 272 15,000 600 Climbing Minneapolis Center
07:53PM 40.9475 -96.1444 79° East 270 311 15,000  Level Minneapolis Center
07:54PM 40.9647 -96.0933 66° East 275 316 15,000  Level Minneapolis Center
07:54PM 40.9728 -96.0506 76° East 311 358 15,000  Level Minneapolis Center
07:55PM 40.9925 -95.9831 69° East 309 356 15,000  Level Minneapolis Center
07:56PM 41.0258 -95.8450 72° East 327 376 15,000  Level Minneapolis Center
07:57PM 41.0625 -95.7003 71° East 334 384 15,000  Level Minneapolis Center
07:58PM 41.0817 -95.6139 74° East 333 383 15,000  Level Minneapolis Center
07:59PM 41.1103 -95.4972 72° East 335 386 15,000  Level Minneapolis Center
08:00PM 41.1381 -95.3811 72° East 333 383 15,000 -120 Level Minneapolis Center
08:01PM 41.1667 -95.2639 72° East 335 386 14,800 -120 Descending Minneapolis Center
08:02PM 41.1997 -95.1258 72° East 331 381 14,800  Level Minneapolis Center
08:03PM 41.2250 -95.0114 74° East 327 376 14,800  Level Minneapolis Center
08:04PM 41.2531 -94.8944 72° East 330 380 14,800  Level Minneapolis Center
08:05PM 41.2794 -94.7775 73° East 331 381 14,800  Level Minneapolis Center
08:06PM 41.3006 -94.7025 69° East 334 384 14,800 -720 Level Minneapolis Center
08:06PM 41.3083 -94.6594 76° East 335 386 14,100 -1,320 Descending Minneapolis Center
08:07PM 41.3289 -94.5869 69° East 330 380 13,500 -1,500 Descending Minneapolis Center
08:07PM 41.3303 -94.5428 88° East 330 380 12,600 -2,040 Descending Minneapolis Center
08:08PM 41.3425 -94.4694 77° East 323 372 11,500 -2,160 Descending Minneapolis Center
08:08PM 41.3456 -94.4072 86° East 315 362 10,400 -1,620 Descending Minneapolis Center
08:09PM 41.3544 -94.3631 75° East 293 337 9,900 -1,560 Descending Minneapolis Center
08:09PM 41.3575 -94.3014 86° East 280 322 8,800 -1,740 Descending Minneapolis Center
08:10PM 41.3686 -94.2650 68° East 275 316 8,200 -1,560 Descending Minneapolis Center
08:11PM 41.3697 -94.2050 89° East 267 307 7,200 -1,620 Descending Minneapolis Center
08:11PM 41.3783 -94.1669 73° East 267 307 6,600 -1,560 Descending Minneapolis Center
08:12PM 41.3872 -94.1111 78° East 263 303 5,600 -1,620 Descending Minneapolis Center
08:12PM 41.4031 -94.0706 62° Northeast 256 295 5,000 -1,800 Descending Minneapolis Center
08:13PM 41.4147 -94.0214 72° East 243 280 3,800 -1,740 Descending Minneapolis Center
08:13PM 41.4281 -93.9881 62° Northeast 238 274 3,300 -840 Descending Minneapolis Center
08:14PM 41.4347 -93.9439 79° East 224 258 3,000 -300 Descending Minneapolis Center
08:14PM 41.4456 -93.9169 62° Northeast 210 242 3,000  Level Minneapolis Center
08:15PM 41.4506 -93.8756 81° East 182 209 3,000  Level Minneapolis Center
08:15PM 41.4592 -93.8547 61° Northeast 180 207 3,000  Level Minneapolis Center
08:16PM 41.4639 -93.8161 81° East 171 197 3,000 -240 Level Minneapolis Center
08:17PM 41.4833 -93.7581 66° East 117 135 2,600 -540 Descending Minneapolis Center
08:18PM 41.4925 -93.7358 61° Northeast 111 128 2,000 -600 Descending Minneapolis Center
08:19PM 41.5089 -93.7044 55° Northeast 106 122 1,500 -540 Descending Minneapolis Center
08:20PM 41.5267 -93.6711 55° Northeast 109 125 1,000 -540 Descending Minneapolis Center
08:22PM 41.5340 -93.6631 66° East  Level Estimated